Time;durP1;ratioP1;P1;durP2;ratioP2;P2;SDS_P1;SDS_P2;PMS_P1;PMS_P2;Temp;Humidity;BMP_temperature;BMP_pressure;BME280_temperature;BME280_humidity;BME280_pressure;Samples;Min_cycle;Max_cycle;Signal;HPM_P1;HPM_P2
2023/08/01 00:00:50;;;;;;;13.63;9.32;;;16.70;99.90;;;;;;6069845;23;20010;-82
2023/08/01 00:03:16;;;;;;;13.20;9.15;;;16.70;99.90;;;;;;6093860;23;20045;-82
2023/08/01 00:05:44;;;;;;;13.52;8.73;;;16.60;99.90;;;;;;6045901;23;20449;-81
2023/08/01 00:08:14;;;;;;;13.40;9.38;;;16.60;99.90;;;;;;6093807;23;20022;-81
2023/08/01 00:10:40;;;;;;;12.88;9.05;;;16.60;99.90;;;;;;6093386;23;20404;-80
2023/08/01 00:13:07;;;;;;;14.15;9.73;;;16.60;99.90;;;;;;6093224;23;20018;-82
2023/08/01 00:15:33;;;;;;;11.32;8.05;;;16.60;99.90;;;;;;6069058;23;20689;-81
2023/08/01 00:17:59;;;;;;;11.38;7.68;;;16.60;99.90;;;;;;6092990;23;20081;-81
2023/08/01 00:20:25;;;;;;;12.10;7.93;;;16.50;99.90;;;;;;6069293;23;20437;-81
2023/08/01 00:22:50;;;;;;;13.35;6.70;;;16.50;99.90;;;;;;6093583;23;20042;-80
2023/08/01 00:25:17;;;;;;;13.00;6.50;;;16.50;99.90;;;;;;6092657;23;20010;-81
2023/08/01 00:27:43;;;;;;;10.48;6.78;;;16.50;99.90;;;;;;6069210;23;20066;-81
2023/08/01 00:30:09;;;;;;;10.90;6.78;;;16.50;99.90;;;;;;6069208;23;20330;-81
2023/08/01 00:32:35;;;;;;;12.38;6.93;;;16.50;99.90;;;;;;6069417;23;20097;-80
2023/08/01 00:35:01;;;;;;;20.05;7.88;;;16.50;99.90;;;;;;6093588;23;20041;-81
2023/08/01 00:37:27;;;;;;;10.52;7.30;;;16.40;99.90;;;;;;6093457;23;20023;-82
2023/08/01 00:39:53;;;;;;;15.77;8.18;;;16.40;99.90;;;;;;6069508;23;20352;-81
2023/08/01 00:42:18;;;;;;;15.20;8.50;;;16.40;99.90;;;;;;6069492;23;20018;-81
2023/08/01 00:44:44;;;;;;;12.10;8.45;;;16.40;99.90;;;;;;6069004;23;20021;-82
2023/08/01 00:47:10;;;;;;;14.70;8.80;;;16.40;99.90;;;;;;6093239;23;20018;-81
2023/08/01 00:49:36;;;;;;;15.50;9.52;;;16.40;99.90;;;;;;6093508;23;20018;-81
2023/08/01 00:52:02;;;;;;;16.00;10.75;;;16.40;99.90;;;;;;6093117;23;20026;-80
2023/08/01 00:54:34;;;;;;;13.95;9.68;;;16.40;99.90;;;;;;6069488;23;20026;-81
2023/08/01 00:57:00;;;;;;;17.20;10.50;;;16.40;99.90;;;;;;6070779;23;20093;-81
2023/08/01 00:59:26;;;;;;;17.55;10.20;;;16.40;99.90;;;;;;6069366;23;20049;-81
2023/08/01 01:01:51;;;;;;;15.93;9.65;;;16.40;99.90;;;;;;6092636;23;20011;-80
2023/08/01 01:04:17;;;;;;;17.08;10.80;;;16.40;99.90;;;;;;6068478;23;20018;-80
2023/08/01 01:07:06;;;;;;;17.85;10.32;;;16.30;99.90;;;;;;6068690;23;20019;-81
2023/08/01 01:09:32;;;;;;;18.35;11.15;;;16.40;99.90;;;;;;6093177;23;20073;-81
2023/08/01 01:11:59;;;;;;;17.83;10.85;;;16.40;99.90;;;;;;6093173;23;20054;-80
2023/08/01 01:14:26;;;;;;;19.10;11.95;;;16.30;99.90;;;;;;6093636;23;20014;-81
2023/08/01 01:16:51;;;;;;;19.20;11.30;;;16.30;99.90;;;;;;6093763;23;20030;-81
2023/08/01 01:19:17;;;;;;;16.73;11.50;;;16.30;99.90;;;;;;6069982;23;20022;-81
2023/08/01 01:21:44;;;;;;;9.82;6.28;;;16.30;99.90;;;;;;6092520;23;20382;-80
2023/08/01 01:24:13;;;;;;;10.32;5.40;;;16.20;99.90;;;;;;6069761;23;20382;-81
2023/08/01 01:26:41;;;;;;;7.00;4.32;;;16.20;99.90;;;;;;6093306;23;20014;-81
2023/08/01 01:29:08;;;;;;;7.40;4.38;;;16.10;99.90;;;;;;6069311;23;20021;-81
2023/08/01 01:31:35;;;;;;;5.80;4.20;;;16.10;99.90;;;;;;6069794;23;20099;-81
2023/08/01 01:34:01;;;;;;;8.93;4.28;;;16.00;99.90;;;;;;6093381;23;20014;-81
2023/08/01 01:36:27;;;;;;;7.13;4.03;;;16.00;99.90;;;;;;6069375;23;20010;-82
2023/08/01 01:38:53;;;;;;;9.73;4.50;;;15.90;99.90;;;;;;6045406;23;20463;-80
2023/08/01 01:41:19;;;;;;;6.25;4.30;;;15.90;99.90;;;;;;6068912;23;20022;-80
2023/08/01 01:43:44;;;;;;;8.00;3.65;;;15.80;99.90;;;;;;6093155;23;20381;-80
2023/08/01 01:46:10;;;;;;;9.13;3.60;;;15.80;99.90;;;;;;6045256;23;20372;-80
2023/08/01 01:48:36;;;;;;;8.18;4.00;;;15.70;99.90;;;;;;6069668;23;20400;-80
2023/08/01 01:51:01;;;;;;;7.68;4.40;;;15.70;99.90;;;;;;6068618;23;20018;-80
2023/08/01 01:53:27;;;;;;;7.47;3.97;;;15.60;99.90;;;;;;6069753;23;20019;-81
2023/08/01 01:55:53;;;;;;;6.70;3.85;;;15.60;99.90;;;;;;6092850;23;20455;-80
2023/08/01 01:58:18;;;;;;;10.85;4.45;;;15.60;99.90;;;;;;6094483;23;20018;-80
2023/08/01 02:00:44;;;;;;;10.57;4.55;;;15.60;99.90;;;;;;6070992;23;20015;-81
2023/08/01 02:03:10;;;;;;;9.98;4.30;;;15.60;99.90;;;;;;6023118;23;20018;-81
2023/08/01 02:05:36;;;;;;;10.15;4.32;;;15.70;99.90;;;;;;6070281;23;20031;-81
2023/08/01 02:08:04;;;;;;;8.60;4.22;;;15.60;99.90;;;;;;6070652;23;20018;-81
2023/08/01 02:10:30;;;;;;;8.50;3.95;;;15.60;99.90;;;;;;6094332;23;20353;-82
2023/08/01 02:12:56;;;;;;;9.30;4.50;;;15.70;99.90;;;;;;6094320;23;20018;-81
2023/08/01 02:15:22;;;;;;;9.25;5.13;;;15.70;99.90;;;;;;6094880;23;20054;-81
2023/08/01 02:17:47;;;;;;;11.80;6.40;;;15.70;99.90;;;;;;6070224;23;20025;-81
2023/08/01 02:20:13;;;;;;;12.68;8.05;;;15.70;99.90;;;;;;6047185;23;20448;-81
2023/08/01 02:22:39;;;;;;;14.15;9.30;;;15.70;99.90;;;;;;6070811;23;20018;-82
2023/08/01 02:25:05;;;;;;;14.90;9.07;;;15.80;99.90;;;;;;6070860;23;20011;-81
2023/08/01 02:27:30;;;;;;;16.98;10.52;;;15.90;99.90;;;;;;6070591;23;20385;-80
2023/08/01 02:29:56;;;;;;;15.98;10.40;;;15.90;99.90;;;;;;6070881;23;20093;-80
2023/08/01 02:32:22;;;;;;;16.95;9.90;;;15.90;99.90;;;;;;6093864;23;20041;-81
2023/08/01 02:34:48;;;;;;;15.20;9.10;;;15.90;99.90;;;;;;6094727;23;20029;-81
2023/08/01 02:37:13;;;;;;;14.10;9.07;;;15.90;99.90;;;;;;6094469;23;20014;-81
2023/08/01 02:39:39;;;;;;;13.20;8.23;;;15.90;99.90;;;;;;6070655;23;20468;-81
2023/08/01 02:42:05;;;;;;;16.35;8.35;;;15.90;99.90;;;;;;6094070;23;20014;-81
2023/08/01 02:44:31;;;;;;;13.88;8.00;;;15.90;99.90;;;;;;6070793;23;20014;-81
2023/08/01 02:46:56;;;;;;;12.32;7.40;;;15.80;99.90;;;;;;6070490;23;20385;-81
2023/08/01 02:49:22;;;;;;;12.40;7.50;;;15.80;99.90;;;;;;6046847;23;20025;-80
2023/08/01 02:51:48;;;;;;;17.63;7.65;;;15.80;99.90;;;;;;6094164;23;20053;-81
2023/08/01 02:54:14;;;;;;;14.02;7.10;;;15.80;99.90;;;;;;6070330;23;20045;-80
2023/08/01 02:56:41;;;;;;;11.65;6.82;;;15.80;99.90;;;;;;6070160;23;20025;-81
2023/08/01 02:59:08;;;;;;;11.65;7.00;;;15.80;99.90;;;;;;6045994;23;20014;-81
2023/08/01 03:01:35;;;;;;;10.77;6.50;;;15.80;99.90;;;;;;6070123;23;20019;-81
2023/08/01 03:04:06;;;;;;;13.52;7.40;;;15.70;99.90;;;;;;6092787;23;20019;-80
2023/08/01 03:06:32;;;;;;;15.85;7.03;;;15.80;99.90;;;;;;6069830;23;20464;-81
2023/08/01 03:08:59;;;;;;;9.30;6.60;;;15.70;99.90;;;;;;6092128;23;20101;-81
2023/08/01 03:11:24;;;;;;;12.73;6.63;;;15.70;99.90;;;;;;6070216;23;20094;-81
2023/08/01 03:13:50;;;;;;;14.15;6.70;;;15.70;99.90;;;;;;6022699;23;20050;-81
2023/08/01 03:16:17;;;;;;;11.80;7.40;;;15.70;99.90;;;;;;6022814;23;20037;-81
2023/08/01 03:18:43;;;;;;;9.98;7.10;;;15.70;99.90;;;;;;6093798;23;20050;-82
2023/08/01 03:21:09;;;;;;;12.80;8.13;;;15.70;99.90;;;;;;6093826;23;20108;-80
2023/08/01 03:23:34;;;;;;;15.00;8.52;;;15.70;99.90;;;;;;6069798;23;20150;-81
2023/08/01 03:26:00;;;;;;;14.90;8.70;;;15.70;99.90;;;;;;6069971;23;20059;-82
2023/08/01 03:28:26;;;;;;;15.35;9.75;;;15.70;99.90;;;;;;6069788;23;20014;-80
2023/08/01 03:30:53;;;;;;;13.93;9.25;;;15.70;99.90;;;;;;6069779;23;20024;-79
2023/08/01 03:33:19;;;;;;;14.57;8.90;;;15.70;99.90;;;;;;6069064;23;20014;-81
2023/08/01 03:35:45;;;;;;;16.98;9.68;;;15.70;99.90;;;;;;6069260;23;20019;-81
2023/08/01 03:38:11;;;;;;;17.65;9.85;;;15.70;99.90;;;;;;6045236;23;20022;-81
2023/08/01 03:40:36;;;;;;;22.98;9.60;;;15.70;99.90;;;;;;6045860;23;20073;-82
2023/08/01 03:43:02;;;;;;;17.88;9.65;;;15.70;99.90;;;;;;6045852;23;20012;-83
2023/08/01 03:45:28;;;;;;;16.92;9.27;;;15.70;99.90;;;;;;6069595;23;20081;-82
2023/08/01 03:47:53;;;;;;;14.23;8.70;;;15.70;99.90;;;;;;6045873;23;20101;-79
2023/08/01 03:50:19;;;;;;;11.32;7.03;;;15.70;99.90;;;;;;6093655;23;20018;-82
2023/08/01 03:52:45;;;;;;;12.43;7.03;;;15.70;99.90;;;;;;6069771;23;20382;-82
2023/08/01 03:55:11;;;;;;;10.57;6.55;;;15.70;99.90;;;;;;6070098;23;20090;-82
2023/08/01 03:57:38;;;;;;;7.90;5.25;;;15.70;99.90;;;;;;6069353;23;20022;-81
2023/08/01 04:00:13;;;;;;;7.38;5.00;;;15.60;99.90;;;;;;6093671;23;20014;-82
2023/08/01 04:02:42;;;;;;;5.18;3.70;;;15.70;99.90;;;;;;6093604;23;20014;-82
2023/08/01 04:05:08;;;;;;;6.45;3.40;;;15.60;99.90;;;;;;6093246;23;20014;-80
2023/08/01 04:07:38;;;;;;;7.47;3.70;;;15.60;99.90;;;;;;6069926;23;20456;-80
2023/08/01 04:10:04;;;;;;;5.15;3.30;;;15.60;99.90;;;;;;6093753;23;20018;-81
2023/08/01 04:12:31;;;;;;;5.28;2.75;;;15.60;99.90;;;;;;6068536;23;20040;-80
2023/08/01 04:14:57;;;;;;;7.30;3.33;;;15.60;99.90;;;;;;6092385;23;20022;-81
2023/08/01 04:17:23;;;;;;;7.13;2.97;;;15.60;99.90;;;;;;6093809;23;20531;-80
2023/08/01 04:19:49;;;;;;;6.18;2.67;;;15.50;99.90;;;;;;6090364;23;20015;-80
2023/08/01 04:22:15;;;;;;;4.75;2.97;;;15.50;99.90;;;;;;6069490;23;20439;-80
2023/08/01 04:24:40;;;;;;;4.32;2.35;;;15.50;99.90;;;;;;6093450;23;20018;-80
2023/08/01 04:27:06;;;;;;;6.30;2.80;;;15.50;99.90;;;;;;6069830;23;20475;-80
2023/08/01 04:29:32;;;;;;;5.68;2.70;;;15.50;99.90;;;;;;6045593;23;20507;-80
2023/08/01 04:31:57;;;;;;;6.88;2.60;;;15.50;99.90;;;;;;6093668;23;20031;-80
2023/08/01 04:34:23;;;;;;;6.18;2.60;;;15.40;99.90;;;;;;6116317;23;20022;-80
2023/08/01 04:36:49;;;;;;;3.70;2.08;;;15.40;99.90;;;;;;6093424;23;20069;-82
2023/08/01 04:39:14;;;;;;;5.10;2.42;;;15.40;99.90;;;;;;6069235;23;20332;-81
2023/08/01 04:41:40;;;;;;;5.38;2.17;;;15.40;99.90;;;;;;6093914;23;20014;-81
2023/08/01 04:44:06;;;;;;;3.22;2.13;;;15.40;99.90;;;;;;6093683;23;20373;-81
2023/08/01 04:46:32;;;;;;;4.38;2.08;;;15.30;99.90;;;;;;6069853;23;20078;-80
2023/08/01 04:48:58;;;;;;;4.80;2.10;;;15.30;99.90;;;;;;6069159;23;20025;-81
2023/08/01 04:51:25;;;;;;;5.13;2.20;;;15.30;99.90;;;;;;6069890;23;20018;-80
2023/08/01 04:53:51;;;;;;;2.83;1.95;;;15.30;99.90;;;;;;6069442;23;20054;-80
2023/08/01 04:56:16;;;;;;;3.78;1.58;;;15.30;99.90;;;;;;6093708;23;20014;-80
2023/08/01 04:58:42;;;;;;;2.75;1.73;;;15.20;99.90;;;;;;6069457;23;20019;-83
2023/08/01 05:01:08;;;;;;;3.38;1.80;;;15.20;99.90;;;;;;6045379;23;20023;-81
2023/08/01 05:03:34;;;;;;;4.05;1.70;;;15.20;99.90;;;;;;6045215;23;20512;-80
2023/08/01 05:05:59;;;;;;;2.17;1.52;;;15.20;99.90;;;;;;6067550;23;20019;-79
2023/08/01 05:08:25;;;;;;;3.28;1.70;;;15.20;99.90;;;;;;6043647;23;20077;-81
2023/08/01 05:10:51;;;;;;;4.15;1.67;;;15.20;99.90;;;;;;6067015;23;20326;-80
2023/08/01 05:13:17;;;;;;;1.88;1.67;;;15.20;99.90;;;;;;6067844;23;20018;-82
2023/08/01 05:15:49;;;;;;;3.83;1.75;;;15.20;99.90;;;;;;6091279;23;20029;-81
2023/08/01 05:18:17;;;;;;;6.80;2.15;;;15.20;99.90;;;;;;6091252;23;20072;-81
2023/08/01 05:20:43;;;;;;;3.05;1.70;;;15.20;99.90;;;;;;6091612;23;20321;-81
2023/08/01 05:23:08;;;;;;;4.30;1.98;;;15.20;99.90;;;;;;6067195;23;20025;-80
2023/08/01 05:25:34;;;;;;;3.90;1.80;;;15.20;99.90;;;;;;6066970;23;20010;-81
2023/08/01 05:28:00;;;;;;;4.28;2.08;;;15.30;99.90;;;;;;6091406;23;20052;-81
2023/08/01 05:30:26;;;;;;;4.63;1.90;;;15.30;99.90;;;;;;6067235;23;20018;-81
2023/08/01 05:32:51;;;;;;;4.65;1.92;;;15.30;99.90;;;;;;6067933;23;20018;-81
2023/08/01 05:35:17;;;;;;;3.20;2.03;;;15.30;99.90;;;;;;6068948;23;20015;-80
2023/08/01 05:37:43;;;;;;;4.25;1.80;;;15.30;99.90;;;;;;6066464;23;20022;-80
2023/08/01 05:40:09;;;;;;;4.88;2.00;;;15.30;99.90;;;;;;6091977;23;20020;-80
2023/08/01 05:42:35;;;;;;;2.35;1.67;;;15.30;99.90;;;;;;6069803;23;20010;-83
2023/08/01 05:45:01;;;;;;;3.25;2.00;;;15.40;99.90;;;;;;6045039;23;20593;-80
2023/08/01 05:47:27;;;;;;;4.72;2.08;;;15.50;99.90;;;;;;6068827;23;20022;-81
2023/08/01 05:49:52;;;;;;;4.13;2.03;;;15.60;99.90;;;;;;6068740;23;20023;-80
2023/08/01 05:52:18;;;;;;;3.97;2.20;;;15.70;99.90;;;;;;6093025;23;20060;-81
2023/08/01 05:54:44;;;;;;;3.45;2.00;;;15.80;99.90;;;;;;6092532;23;20094;-81
2023/08/01 05:57:10;;;;;;;4.53;2.20;;;15.80;99.90;;;;;;6068394;23;20086;-81
2023/08/01 05:59:36;;;;;;;4.00;2.13;;;15.80;99.90;;;;;;6068987;23;20014;-82
2023/08/01 06:02:02;;;;;;;2.83;2.10;;;15.80;99.90;;;;;;6068872;23;20464;-81
2023/08/01 06:04:28;;;;;;;6.10;2.33;;;15.80;99.90;;;;;;6068455;23;20102;-81
2023/08/01 06:06:54;;;;;;;5.90;2.55;;;15.80;99.90;;;;;;6068813;23;20460;-82
2023/08/01 06:09:20;;;;;;;6.70;2.45;;;15.80;99.90;;;;;;6069260;23;20011;-82
2023/08/01 06:11:46;;;;;;;4.97;2.47;;;15.70;99.90;;;;;;6092612;23;20326;-80
2023/08/01 06:14:11;;;;;;;7.53;2.70;;;15.70;99.90;;;;;;6068289;23;20022;-81
2023/08/01 06:16:37;;;;;;;5.65;2.30;;;15.70;99.90;;;;;;6068264;23;20405;-81
2023/08/01 06:19:03;;;;;;;3.45;2.65;;;15.80;99.90;;;;;;6092498;23;20026;-80
2023/08/01 06:21:29;;;;;;;4.53;2.72;;;15.90;99.90;;;;;;6091614;23;20014;-80
2023/08/01 06:23:55;;;;;;;4.72;2.42;;;16.10;99.90;;;;;;6091672;23;20014;-80
2023/08/01 06:26:21;;;;;;;4.60;2.45;;;16.10;99.90;;;;;;6067937;23;20452;-79
2023/08/01 06:28:46;;;;;;;5.93;2.50;;;16.20;99.90;;;;;;6067887;23;20062;-80
2023/08/01 06:31:12;;;;;;;4.13;2.40;;;16.20;99.90;;;;;;6068709;23;20023;-80
2023/08/01 06:33:38;;;;;;;4.45;2.40;;;16.20;99.90;;;;;;6069241;23;20100;-80
2023/08/01 06:36:04;;;;;;;2.50;2.30;;;16.20;99.90;;;;;;6068370;23;20074;-79
2023/08/01 06:38:30;;;;;;;4.53;2.80;;;16.10;99.90;;;;;;6068176;23;20015;-79
2023/08/01 06:40:56;;;;;;;4.80;2.75;;;16.10;99.90;;;;;;6068464;23;20010;-81
2023/08/01 06:43:24;;;;;;;5.53;2.63;;;16.00;99.90;;;;;;6068270;23;20436;-79
2023/08/01 06:45:50;;;;;;;5.10;2.45;;;16.00;99.90;;;;;;6068242;23;20045;-81
2023/08/01 06:48:15;;;;;;;4.07;2.45;;;16.00;99.90;;;;;;6044091;23;20030;-80
2023/08/01 06:50:41;;;;;;;4.75;2.70;;;16.00;99.90;;;;;;6067435;23;20030;-82
2023/08/01 06:53:08;;;;;;;4.43;2.53;;;16.00;99.90;;;;;;6067362;23;20154;-81
2023/08/01 06:55:34;;;;;;;2.90;1.90;;;16.00;99.90;;;;;;6068740;23;20030;-80
2023/08/01 06:57:59;;;;;;;5.85;2.30;;;16.00;99.90;;;;;;6091734;23;20022;-81
2023/08/01 07:00:25;;;;;;;4.10;2.10;;;16.00;99.90;;;;;;6044136;23;20077;-82
2023/08/01 07:02:51;;;;;;;5.85;2.72;;;16.00;99.90;;;;;;6068349;23;20310;-80
2023/08/01 07:05:17;;;;;;;3.70;2.28;;;16.00;99.90;;;;;;6089591;23;20025;-79
2023/08/01 07:07:42;;;;;;;3.13;2.17;;;16.10;99.90;;;;;;6091570;23;20023;-79
2023/08/01 07:10:08;;;;;;;4.15;2.42;;;16.10;99.90;;;;;;6092456;23;20018;-80
2023/08/01 07:12:34;;;;;;;3.72;2.60;;;16.10;99.90;;;;;;6091764;23;20019;-80
2023/08/01 07:15:00;;;;;;;4.68;2.10;;;16.20;99.90;;;;;;6091325;23;20010;-83
2023/08/01 07:17:25;;;;;;;5.25;2.22;;;16.20;99.90;;;;;;6089897;23;20097;-79
2023/08/01 07:19:51;;;;;;;3.88;2.00;;;16.20;99.90;;;;;;6091502;23;20018;-80
2023/08/01 07:22:17;;;;;;;3.90;2.00;;;16.30;99.90;;;;;;6068434;23;20010;-81
2023/08/01 07:24:42;;;;;;;3.78;2.00;;;16.40;99.90;;;;;;6092226;23;20060;-81
2023/08/01 07:27:08;;;;;;;5.68;2.55;;;16.70;99.90;;;;;;6068942;23;20599;-82
2023/08/01 07:29:34;;;;;;;6.45;2.00;;;16.80;99.90;;;;;;6068202;23;20062;-81
2023/08/01 07:31:59;;;;;;;5.53;1.80;;;16.90;99.90;;;;;;6068293;23;20050;-80
2023/08/01 07:34:25;;;;;;;3.88;2.00;;;16.80;99.90;;;;;;6092315;23;20322;-81
2023/08/01 07:36:51;;;;;;;6.50;1.80;;;16.80;99.90;;;;;;6091934;23;20025;-81
2023/08/01 07:39:17;;;;;;;3.78;1.58;;;16.80;99.90;;;;;;6068240;23;20022;-80
2023/08/01 07:41:42;;;;;;;2.63;1.50;;;16.80;99.90;;;;;;6092157;23;20093;-81
2023/08/01 07:44:08;;;;;;;4.47;1.58;;;16.80;99.90;;;;;;6068329;23;20022;-83
2023/08/01 07:46:34;;;;;;;3.83;1.63;;;16.80;99.90;;;;;;6068786;23;20015;-82
2023/08/01 07:48:59;;;;;;;4.38;1.50;;;16.80;99.90;;;;;;6044618;23;20018;-83
2023/08/01 07:51:26;;;;;;;4.38;1.55;;;16.70;99.90;;;;;;6092100;23;20026;-81
2023/08/01 07:53:54;;;;;;;2.80;1.58;;;16.60;99.90;;;;;;6099760;23;20369;-81
2023/08/01 07:56:20;;;;;;;3.75;1.60;;;16.60;99.90;;;;;;6101747;23;20022;-82
2023/08/01 07:58:46;;;;;;;4.28;1.73;;;16.50;99.90;;;;;;6095569;23;20015;-82
2023/08/01 08:01:12;;;;;;;4.40;1.90;;;16.50;99.90;;;;;;6070163;23;20092;-82
2023/08/01 08:03:37;;;;;;;5.20;1.88;;;16.50;99.90;;;;;;6069944;23;20015;-83
2023/08/01 08:06:04;;;;;;;3.45;1.85;;;16.50;99.90;;;;;;6095247;23;20506;-81
2023/08/01 08:08:30;;;;;;;4.93;2.05;;;16.50;99.90;;;;;;6070081;23;20145;-82
2023/08/01 08:10:56;;;;;;;5.80;2.10;;;16.50;99.90;;;;;;6093107;23;20081;-80
2023/08/01 08:13:22;;;;;;;4.43;1.90;;;16.40;99.90;;;;;;6069326;23;20472;-81
2023/08/01 08:15:48;;;;;;;7.10;2.42;;;16.40;99.90;;;;;;6093344;23;20033;-81
2023/08/01 08:18:13;;;;;;;4.70;2.20;;;16.40;99.90;;;;;;6093237;23;20613;-81
2023/08/01 08:20:44;;;;;;;5.07;2.13;;;16.40;99.90;;;;;;6069179;23;20085;-82
2023/08/01 08:23:10;;;;;;;4.23;2.00;;;16.30;99.90;;;;;;6095152;23;20073;-81
2023/08/01 08:25:36;;;;;;;4.35;1.80;;;16.30;99.90;;;;;;6094951;23;20238;-83
2023/08/01 08:28:03;;;;;;;3.63;2.08;;;16.30;99.90;;;;;;6093205;23;20802;-81
2023/08/01 08:30:28;;;;;;;4.03;2.10;;;16.30;99.90;;;;;;6094406;23;20026;-83
2023/08/01 08:32:54;;;;;;;5.38;1.80;;;16.30;99.90;;;;;;6093547;23;20037;-81
2023/08/01 08:35:20;;;;;;;3.75;2.00;;;16.30;99.90;;;;;;6091703;23;20018;-82
2023/08/01 08:37:45;;;;;;;3.13;1.80;;;16.20;99.90;;;;;;6068053;23;20026;-83
2023/08/01 08:40:13;;;;;;;3.75;1.92;;;16.20;99.90;;;;;;6117680;23;20018;-87
2023/08/01 08:42:39;;;;;;;3.42;1.70;;;16.20;99.90;;;;;;6093518;23;20061;-84
2023/08/01 08:45:06;;;;;;;4.47;1.83;;;16.20;99.90;;;;;;6093419;23;20411;-82
2023/08/01 08:47:36;;;;;;;2.88;1.70;;;16.10;99.90;;;;;;6069272;23;20060;-85
2023/08/01 08:50:03;;;;;;;4.72;2.03;;;16.10;99.90;;;;;;6093518;23;20045;-83
2023/08/01 08:52:29;;;;;;;4.03;1.55;;;16.10;99.90;;;;;;6093422;23;20026;-81
2023/08/01 08:54:57;;;;;;;6.55;2.10;;;16.10;99.90;;;;;;6093016;23;20021;-81
2023/08/01 08:57:23;;;;;;;3.30;1.83;;;16.10;99.90;;;;;;6092701;23;20021;-81
2023/08/01 08:59:50;;;;;;;6.32;2.35;;;16.10;99.90;;;;;;6045630;23;20457;-79
2023/08/01 09:02:17;;;;;;;2.78;1.70;;;16.10;99.90;;;;;;6069335;23;20014;-81
2023/08/01 09:04:42;;;;;;;4.57;2.00;;;16.10;99.90;;;;;;6069218;23;20078;-82
2023/08/01 09:07:11;;;;;;;5.32;2.10;;;16.10;99.90;;;;;;6070664;23;20384;-81
2023/08/01 09:09:37;;;;;;;4.60;2.05;;;16.20;99.90;;;;;;6097253;23;20389;-81
2023/08/01 09:12:03;;;;;;;3.20;2.00;;;16.20;99.90;;;;;;6096323;23;20605;-82
2023/08/01 09:14:32;;;;;;;4.13;2.10;;;16.20;99.90;;;;;;6048514;23;20021;-80
2023/08/01 09:17:07;;;;;;;4.15;2.17;;;16.20;99.90;;;;;;6071075;23;20109;-82
2023/08/01 09:19:33;;;;;;;2.83;2.10;;;16.20;99.90;;;;;;6095302;23;20014;-81
2023/08/01 09:21:58;;;;;;;3.42;2.45;;;16.30;99.90;;;;;;6071248;23;20020;-82
2023/08/01 09:24:24;;;;;;;3.63;2.03;;;16.40;99.90;;;;;;6072120;23;20014;-81
2023/08/01 09:26:50;;;;;;;4.20;2.00;;;16.40;99.90;;;;;;6047587;23;20011;-84
2023/08/01 09:29:20;;;;;;;3.88;1.98;;;16.40;99.90;;;;;;6095144;23;20014;-82
2023/08/01 09:31:46;;;;;;;3.55;2.13;;;16.40;99.90;;;;;;6070964;23;20022;-84
2023/08/01 09:34:21;;;;;;;3.15;1.83;;;16.30;99.90;;;;;;6070994;23;20158;-84
2023/08/01 09:36:47;;;;;;;3.83;2.10;;;16.30;99.90;;;;;;6094701;23;20018;-83
2023/08/01 09:39:20;;;;;;;5.30;2.60;;;16.20;99.90;;;;;;6094489;23;20018;-82
2023/08/01 09:41:55;;;;;;;3.85;2.17;;;16.30;99.90;;;;;;6094581;23;20050;-83
2023/08/01 09:44:20;;;;;;;3.60;2.53;;;16.30;99.90;;;;;;6094462;23;20401;-81
2023/08/01 09:47:01;;;;;;;4.70;2.53;;;16.40;99.90;;;;;;6093740;23;20019;-82
2023/08/01 09:49:28;;;;;;;4.93;2.22;;;16.40;99.90;;;;;;6094667;23;20508;-82
2023/08/01 09:51:54;;;;;;;5.20;2.60;;;16.40;99.90;;;;;;6096231;23;20018;-82
2023/08/01 09:54:20;;;;;;;3.97;2.60;;;16.40;99.90;;;;;;6095169;23;20017;-83
2023/08/01 09:56:51;;;;;;;4.82;2.40;;;16.40;99.90;;;;;;6095032;23;20076;-83
2023/08/01 09:59:25;;;;;;;4.38;2.33;;;16.50;99.90;;;;;;6095368;23;20025;-82
2023/08/01 10:01:52;;;;;;;4.22;2.30;;;16.70;99.90;;;;;;6070875;23;20014;-82
2023/08/01 10:04:25;;;;;;;5.00;2.20;;;16.80;99.90;;;;;;6098278;23;20066;-82
2023/08/01 10:06:59;;;;;;;5.75;2.42;;;16.90;99.90;;;;;;6094337;23;20019;-84
2023/08/01 10:09:25;;;;;;;3.67;2.50;;;16.90;99.90;;;;;;6070104;23;20022;-82
2023/08/01 10:11:51;;;;;;;5.88;2.65;;;17.00;99.90;;;;;;6071136;23;20400;-83
2023/08/01 10:14:19;;;;;;;3.53;2.10;;;17.10;99.90;;;;;;6094837;23;20069;-83
2023/08/01 10:16:46;;;;;;;5.55;2.17;;;17.30;99.90;;;;;;6094489;23;20021;-82
2023/08/01 10:19:13;;;;;;;4.63;2.20;;;17.40;99.90;;;;;;6093704;23;20027;-84
2023/08/01 10:21:40;;;;;;;4.45;2.08;;;17.50;99.90;;;;;;6070661;23;20054;-80
2023/08/01 10:24:07;;;;;;;2.55;1.83;;;17.50;99.90;;;;;;6096425;23;20015;-81
2023/08/01 10:26:32;;;;;;;4.20;2.13;;;17.60;99.90;;;;;;6070179;23;20441;-82
2023/08/01 10:28:59;;;;;;;4.10;2.00;;;17.60;99.90;;;;;;6071316;23;20026;-81
2023/08/01 10:31:25;;;;;;;2.47;1.52;;;17.70;99.90;;;;;;6095963;23;20105;-80
2023/08/01 10:33:52;;;;;;;5.45;1.98;;;17.60;99.90;;;;;;6096047;23;20453;-82
2023/08/01 10:36:20;;;;;;;2.97;1.92;;;17.70;99.90;;;;;;6047446;23;20532;-83
2023/08/01 10:38:53;;;;;;;4.38;2.08;;;17.90;99.90;;;;;;6070937;23;20024;-80
2023/08/01 10:41:32;;;;;;;4.05;1.95;;;18.00;99.90;;;;;;6094670;23;20022;-82
2023/08/01 10:44:12;;;;;;;5.80;1.98;;;18.10;99.90;;;;;;6094412;23;20018;-82
2023/08/01 10:46:50;;;;;;;4.53;2.10;;;18.20;99.90;;;;;;6094641;23;20093;-81
2023/08/01 10:49:17;;;;;;;4.57;1.90;;;18.30;99.90;;;;;;6071380;23;20089;-82
2023/08/01 10:51:43;;;;;;;4.22;1.88;;;18.30;99.90;;;;;;6095340;23;20077;-82
2023/08/01 10:54:23;;;;;;;3.28;1.90;;;18.20;99.90;;;;;;6094904;23;20018;-81
2023/08/01 10:56:53;;;;;;;2.55;1.95;;;17.90;99.90;;;;;;6094849;23;20025;-81
2023/08/01 10:59:20;;;;;;;2.67;2.00;;;17.80;99.90;;;;;;6094550;23;20345;-82
2023/08/01 11:01:57;;;;;;;2.80;2.00;;;17.70;99.90;;;;;;6070762;23;20015;-83
2023/08/01 11:04:24;;;;;;;3.42;2.22;;;17.60;99.90;;;;;;6095226;23;20018;-83
2023/08/01 11:06:52;;;;;;;4.40;2.20;;;17.50;99.90;;;;;;6094863;23;20070;-81
2023/08/01 11:09:23;;;;;;;3.60;2.08;;;17.40;99.90;;;;;;6094235;23;20469;-81
2023/08/01 11:11:57;;;;;;;6.47;2.53;;;17.30;99.90;;;;;;6094582;23;20081;-81
2023/08/01 11:14:27;;;;;;;4.72;2.55;;;17.30;99.90;;;;;;6093794;23;20045;-81
2023/08/01 11:16:57;;;;;;;5.55;2.42;;;17.50;99.90;;;;;;6094324;23;20014;-81
2023/08/01 11:19:30;;;;;;;4.97;3.03;;;17.70;99.90;;;;;;6094552;23;20022;-82
2023/08/01 11:21:57;;;;;;;4.60;2.53;;;17.90;99.90;;;;;;6094175;23;20022;-81
2023/08/01 11:24:24;;;;;;;5.82;2.65;;;18.00;99.90;;;;;;6094387;23;20322;-82
2023/08/01 11:26:52;;;;;;;6.47;2.65;;;18.20;99.90;;;;;;6047099;23;20467;-82
2023/08/01 11:29:19;;;;;;;6.88;2.50;;;18.20;99.90;;;;;;6070512;23;20105;-82
2023/08/01 11:31:59;;;;;;;5.38;2.40;;;18.20;99.90;;;;;;6046894;23;20015;-83
2023/08/01 11:34:26;;;;;;;5.32;2.30;;;18.10;99.90;;;;;;6094395;23;20019;-82
2023/08/01 11:36:53;;;;;;;6.28;2.10;;;17.90;99.90;;;;;;6069358;23;20475;-83
2023/08/01 11:39:19;;;;;;;5.43;2.40;;;17.80;99.90;;;;;;6093618;23;20471;-80
2023/08/01 11:41:45;;;;;;;7.30;2.60;;;17.60;99.90;;;;;;6069995;23;20097;-82
2023/08/01 11:44:11;;;;;;;2.70;2.25;;;17.50;99.90;;;;;;6094266;23;20022;-81
2023/08/01 11:46:38;;;;;;;5.85;2.30;;;17.60;99.90;;;;;;6070882;23;20010;-82
2023/08/01 11:49:06;;;;;;;6.63;2.65;;;17.90;99.90;;;;;;6094768;23;20018;-82
2023/08/01 11:51:39;;;;;;;4.68;2.25;;;18.20;99.90;;;;;;6094515;23;20018;-84
2023/08/01 11:54:06;;;;;;;7.45;2.40;;;18.50;99.90;;;;;;6094630;23;20441;-83
2023/08/01 11:56:31;;;;;;;7.47;2.58;;;18.70;99.90;;;;;;6046895;23;20357;-82
2023/08/01 11:58:58;;;;;;;5.00;1.98;;;18.70;99.90;;;;;;6070183;23;20021;-80
2023/08/01 12:01:24;;;;;;;8.05;1.70;;;18.60;99.90;;;;;;6094250;23;20047;-83
2023/08/01 12:03:52;;;;;;;6.07;2.50;;;18.40;99.90;;;;;;6093899;23;20017;-82
2023/08/01 12:06:23;;;;;;;6.25;2.30;;;18.30;99.90;;;;;;6070425;23;20090;-83
2023/08/01 12:08:50;;;;;;;4.65;2.00;;;18.10;99.90;;;;;;6069864;23;20022;-82
2023/08/01 12:11:25;;;;;;;5.18;2.47;;;18.00;99.90;;;;;;6070431;23;20018;-84
2023/08/01 12:14:17;;;;;;;5.30;2.35;;;17.90;99.90;;;;;;6070349;23;20479;-83
2023/08/01 12:16:45;;;;;;;5.65;2.42;;;17.80;99.90;;;;;;6041747;23;20038;-82
2023/08/01 12:19:16;;;;;;;7.70;2.58;;;17.70;99.90;;;;;;6093025;23;20015;-81
2023/08/01 12:21:41;;;;;;;4.60;2.23;;;17.70;99.90;;;;;;6093586;23;20085;-80
2023/08/01 12:24:07;;;;;;;5.38;2.58;;;17.50;99.90;;;;;;6070304;23;20101;-81
2023/08/01 12:26:33;;;;;;;7.80;2.83;;;17.40;99.90;;;;;;6070365;23;20020;-81
2023/08/01 12:28:58;;;;;;;6.90;2.72;;;17.50;99.90;;;;;;6070175;23;20022;-82
2023/08/01 12:31:24;;;;;;;5.20;3.00;;;17.70;99.90;;;;;;6070166;23;20326;-83
2023/08/01 12:33:52;;;;;;;7.82;2.80;;;17.90;99.90;;;;;;6069828;23;20021;-82
2023/08/01 12:36:18;;;;;;;7.18;2.88;;;18.30;99.90;;;;;;6093623;23;20082;-87
2023/08/01 12:38:43;;;;;;;8.25;2.20;;;18.40;99.90;;;;;;6093902;23;20444;-85
2023/08/01 12:41:09;;;;;;;8.90;2.63;;;18.70;99.90;;;;;;6093639;23;20014;-84